Time;durP1;ratioP1;P1;durP2;ratioP2;P2;SDS_P1;SDS_P2;PMS_P1;PMS_P2;Temp;Humidity;BMP_temperature;BMP_pressure;BME280_temperature;BME280_humidity;BME280_pressure;Samples;Min_cycle;Max_cycle;Signal;HPM_P1;HPM_P2
2020/12/20 00:00:37;;;;;;;47.38;22.60;;;;;;;5.84;71.63;100678.89;1811174;79;21158;-36
2020/12/20 00:03:07;;;;;;;40.80;21.87;;;;;;;5.88;71.58;100683.16;1814602;78;21380;-36
2020/12/20 00:05:36;;;;;;;43.80;21.82;;;;;;;5.94;71.42;100688.72;1783339;80;21036;-36
2020/12/20 00:08:04;;;;;;;41.95;20.75;;;;;;;5.94;71.39;100684.14;1785350;78;21135;-36
2020/12/20 00:10:32;;;;;;;40.20;20.02;;;;;;;5.94;71.43;100690.06;1814227;78;21034;-36
2020/12/20 00:13:01;;;;;;;37.17;18.10;;;;;;;5.96;71.43;100689.20;1812650;78;21134;-36
2020/12/20 00:15:29;;;;;;;36.53;18.57;;;;;;;5.96;71.36;100689.20;1815330;78;21248;-36
2020/12/20 00:17:57;;;;;;;37.90;18.48;;;;;;;5.92;71.27;100693.58;1815447;79;21365;-36
2020/12/20 00:20:26;;;;;;;35.73;18.02;;;;;;;5.88;71.31;100692.04;1785878;79;21186;-36
2020/12/20 00:22:54;;;;;;;32.63;17.20;;;;;;;5.89;71.31;100682.08;1795644;78;21661;-36
2020/12/20 00:25:22;;;;;;;34.25;17.37;;;;;;;5.96;71.20;100682.47;1732089;80;21207;-36
2020/12/20 00:27:51;;;;;;;40.98;19.15;;;;;;;5.99;71.14;100687.28;1771337;79;21376;-36
2020/12/20 00:30:20;;;;;;;39.50;19.65;;;;;;;5.97;71.18;100683.53;1744774;81;21198;-36
2020/12/20 00:32:50;;;;;;;37.90;18.20;;;;;;;5.98;71.17;100682.98;1753216;79;21381;-36
2020/12/20 00:35:18;;;;;;;37.45;17.40;;;;;;;5.97;71.18;100677.34;1777753;79;21166;-36
2020/12/20 00:37:46;;;;;;;33.73;17.95;;;;;;;5.93;71.16;100677.15;1781122;80;21130;-36
2020/12/20 00:40:15;;;;;;;38.90;18.45;;;;;;;5.90;71.24;100679.64;1787727;79;21395;-36
2020/12/20 00:42:43;;;;;;;34.90;17.92;;;;;;;5.92;71.23;100668.02;1792285;78;21190;-36
2020/12/20 00:45:12;;;;;;;38.17;18.12;;;;;;;5.99;71.07;100667.89;1797958;79;21174;-36
2020/12/20 00:47:40;;;;;;;37.28;17.55;;;;;;;5.97;70.94;100663.89;1796817;79;21139;-36
2020/12/20 00:50:08;;;;;;;32.23;16.70;;;;;;;5.91;71.10;100668.56;1789011;79;21166;-36
2020/12/20 00:52:37;;;;;;;31.20;16.05;;;;;;;5.88;71.15;100665.13;1735179;81;21443;-36
2020/12/20 00:55:06;;;;;;;33.00;16.17;;;;;;;5.87;71.22;100670.80;1773360;79;21059;-37
2020/12/20 00:57:36;;;;;;;30.45;15.55;;;;;;;5.81;71.26;100669.28;1745359;81;21214;-36
2020/12/20 01:00:05;;;;;;;28.02;14.33;;;;;;;5.73;71.33;100673.97;1797215;79;27088;-36
2020/12/20 01:02:35;;;;;;;27.73;14.70;;;;;;;5.68;71.44;100679.69;1778633;78;21135;-36
2020/12/20 01:05:05;;;;;;;24.95;14.03;;;;;;;5.65;71.51;100673.56;1787657;78;21424;-37
2020/12/20 01:07:34;;;;;;;29.25;14.73;;;;;;;5.61;71.70;100680.63;1808755;79;21170;-36
2020/12/20 01:10:03;;;;;;;27.80;15.20;;;;;;;5.61;71.94;100686.02;1769972;79;21126;-36
2020/12/20 01:12:32;;;;;;;28.05;15.38;;;;;;;5.62;71.89;100682.20;1751967;81;21205;-36
2020/12/20 01:15:10;;;;;;;27.05;14.65;;;;;;;5.62;72.04;100676.83;1867476;75;22776;-36
2020/12/20 01:18:26;;;;;;;28.12;15.30;;;;;;;5.59;72.10;100674.73;1811471;79;21914;-36
2020/12/20 01:20:54;;;;;;;25.85;15.35;;;;;;;5.55;72.11;100679.11;1716311;83;21085;-36
2020/12/20 01:23:23;;;;;;;27.90;15.43;;;;;;;5.58;72.11;100677.16;1707962;83;22287;-37
2020/12/20 01:25:52;;;;;;;33.42;16.27;;;;;;;5.61;72.15;100681.98;1705283;83;22004;-36
2020/12/20 01:28:20;;;;;;;29.20;15.15;;;;;;;5.60;72.19;100675.53;1698006;84;21041;-36
2020/12/20 01:30:48;;;;;;;33.95;15.03;;;;;;;5.59;72.20;100680.12;1714154;83;21028;-36
2020/12/20 01:33:18;;;;;;;31.48;14.60;;;;;;;5.55;72.17;100677.77;1692498;83;21037;-36
2020/12/20 01:36:12;;;;;;;27.77;13.83;;;;;;;5.51;72.47;100686.17;1819723;78;22360;-36
2020/12/20 01:38:42;;;;;;;24.10;13.72;;;;;;;5.52;72.34;100681.56;1776539;79;21250;-36
2020/12/20 01:41:10;;;;;;;26.25;13.25;;;;;;;5.52;72.34;100683.71;1808334;79;22249;-36
2020/12/20 01:43:46;;;;;;;25.97;14.10;;;;;;;5.56;72.38;100691.47;1805933;79;21550;-37
2020/12/20 01:46:19;;;;;;;29.18;14.50;;;;;;;5.55;72.26;100683.14;1782212;79;21277;-36
2020/12/20 01:48:49;;;;;;;26.10;13.43;;;;;;;5.53;72.37;100694.73;1778240;79;21016;-36
2020/12/20 01:51:17;;;;;;;26.77;13.53;;;;;;;5.51;72.45;100684.83;1770637;80;21024;-36
2020/12/20 01:53:47;;;;;;;28.05;14.70;;;;;;;5.53;72.43;100684.52;1721747;82;21295;-36
2020/12/20 01:56:17;;;;;;;24.37;13.25;;;;;;;5.50;72.45;100684.56;1718657;82;21048;-36
2020/12/20 01:58:49;;;;;;;24.90;14.25;;;;;;;5.56;72.37;100680.72;1708199;82;21200;-36
2020/12/20 02:01:19;;;;;;;29.72;14.05;;;;;;;5.60;72.30;100684.41;1747247;81;21127;-36
2020/12/20 02:04:04;;;;;;;26.52;13.62;;;;;;;5.64;72.28;100681.92;1833585;77;22751;-36
2020/12/20 02:06:38;;;;;;;25.37;13.43;;;;;;;5.61;72.25;100680.63;1815136;78;21044;-36
2020/12/20 02:09:07;;;;;;;24.87;13.15;;;;;;;5.61;72.21;100681.98;1748455;81;21207;-36
2020/12/20 02:11:35;;;;;;;24.20;13.25;;;;;;;5.61;72.14;100683.87;1777423;80;20980;-36
2020/12/20 02:14:06;;;;;;;22.15;12.65;;;;;;;5.60;72.01;100688.45;1748528;82;21000;-36
2020/12/20 02:16:47;;;;;;;23.15;12.07;;;;;;;5.68;71.99;100689.11;1809254;78;22718;-36
2020/12/20 02:19:19;;;;;;;24.43;13.15;;;;;;;5.37;71.85;100639.60;1804847;78;20964;-36
2020/12/20 02:21:47;;;;;;;24.65;13.28;;;;;;;5.68;71.86;100685.07;1677404;83;21630;-36
2020/12/20 02:24:17;;;;;;;23.83;12.73;;;;;;;5.68;71.83;100694.48;1768986;80;21845;-36
2020/12/20 02:26:48;;;;;;;22.60;12.23;;;;;;;5.64;71.75;100690.80;1748436;82;21020;-37
2020/12/20 02:29:16;;;;;;;20.30;11.55;;;;;;;5.57;71.90;100690.36;1770511;80;21628;-37
2020/12/20 02:31:45;;;;;;;20.85;11.00;;;;;;;5.54;71.95;100689.61;1748514;80;21573;-36
2020/12/20 02:34:14;;;;;;;18.45;11.20;;;;;;;5.56;71.90;100698.20;1755338;80;21364;-36
2020/12/20 02:36:46;;;;;;;21.33;11.48;;;;;;;5.62;71.69;100688.93;1763287;81;21044;-36
2020/12/20 02:39:17;;;;;;;21.65;12.10;;;;;;;5.57;71.81;100689.55;1727997;82;21048;-36
2020/12/20 02:41:59;;;;;;;21.30;11.78;;;;;;;5.54;71.94;100686.12;1741513;81;21150;-36
2020/12/20 02:44:29;;;;;;;22.55;12.10;;;;;;;5.50;72.08;100698.02;1728298;81;21178;-36
2020/12/20 02:47:00;;;;;;;22.55;11.63;;;;;;;5.50;72.05;100700.70;1730958;81;21302;-36
2020/12/20 02:49:29;;;;;;;21.83;12.27;;;;;;;5.49;72.03;100705.02;1728322;81;21237;-36
2020/12/20 02:51:59;;;;;;;18.45;11.60;;;;;;;5.49;72.00;100701.80;1736962;81;21047;-36
2020/12/20 02:54:27;;;;;;;20.88;11.35;;;;;;;5.55;71.87;100699.28;1725679;83;21649;-36
2020/12/20 02:56:56;;;;;;;17.25;10.78;;;;;;;5.53;71.81;100700.11;1772407;80;21143;-36
2020/12/20 02:59:25;;;;;;;;;;;;;;;5.48;71.88;100709.60;1778687;80;21207;-36
2020/12/20 03:01:55;;;;;;;21.20;11.87;;;;;;;5.49;71.96;100705.02;1729469;82;20131;-36
2020/12/20 03:04:24;;;;;;;19.45;11.70;;;;;;;5.40;72.19;100708.13;1748820;81;21178;-36
2020/12/20 03:06:53;;;;;;;21.23;12.40;;;;;;;5.42;72.15;100704.04;1766040;80;21649;-36
2020/12/20 03:09:21;;;;;;;21.07;11.90;;;;;;;5.45;72.07;100711.55;1715753;83;21164;-36
2020/12/20 03:11:50;;;;;;;19.35;11.90;;;;;;;5.47;72.06;100706.66;1715270;82;21609;-36
2020/12/20 03:14:19;;;;;;;20.45;12.20;;;;;;;5.56;71.85;100700.89;1729612;81;21036;-36
2020/12/20 03:16:49;;;;;;;20.30;12.10;;;;;;;5.64;71.79;100709.62;1772929;80;21020;-36
2020/12/20 03:19:18;;;;;;;23.95;13.30;;;;;;;5.69;71.67;100706.86;1732191;80;21074;-36
2020/12/20 03:21:47;;;;;;;22.17;13.10;;;;;;;5.74;71.57;100707.86;1796222;78;21114;-36
2020/12/20 03:24:24;;;;;;;22.05;13.10;;;;;;;5.74;71.47;100707.31;1786201;79;21283;-36
2020/12/20 03:26:54;;;;;;;23.00;12.82;;;;;;;5.73;71.47;100717.02;1794476;78;21169;-36
2020/12/20 03:29:39;;;;;;;19.15;11.93;;;;;;;5.73;71.40;100717.02;1805204;78;21158;-36
2020/12/20 03:32:18;;;;;;;20.27;11.88;;;;;;;5.78;71.24;100718.28;1743521;81;21203;-36
2020/12/20 03:34:54;;;;;;;24.92;12.85;;;;;;;5.79;71.16;100722.03;1756946;80;21178;-36
2020/12/20 03:37:36;;;;;;;22.77;13.32;;;;;;;5.79;71.11;100719.89;1810323;77;23304;-36
2020/12/20 03:40:12;;;;;;;21.90;13.15;;;;;;;5.71;71.13;100724.61;1790782;78;21051;-36
2020/12/20 03:42:40;;;;;;;23.45;13.38;;;;;;;5.66;71.31;100720.88;1816033;79;21194;-37
2020/12/20 03:45:09;;;;;;;23.18;12.45;;;;;;;5.69;71.37;100732.42;1746950;80;21025;-36
2020/12/20 03:47:37;;;;;;;22.40;12.78;;;;;;;5.72;71.30;100731.56;1754511;80;20992;-36
2020/12/20 03:50:05;;;;;;;22.98;12.85;;;;;;;5.68;71.28;100728.13;1752104;80;21593;-36
2020/12/20 03:52:34;;;;;;;21.23;13.05;;;;;;;5.68;71.13;100733.50;1714673;82;21628;-36
2020/12/20 03:55:04;;;;;;;23.05;13.25;;;;;;;5.67;71.04;100741.31;1749503;81;21215;-36
2020/12/20 03:57:33;;;;;;;22.10;13.80;;;;;;;5.64;71.24;100743.80;1749426;82;20953;-36
2020/12/20 04:00:04;;;;;;;25.02;13.88;;;;;;;5.64;71.29;100739.77;1747695;81;21377;-36
2020/12/20 04:02:34;;;;;;;26.97;14.80;;;;;;;5.60;71.32;100744.14;1732112;82;21175;-36
2020/12/20 04:05:03;;;;;;;24.40;13.78;;;;;;;5.56;71.40;100750.66;1738433;81;21111;-36
2020/12/20 04:07:32;;;;;;;24.07;14.05;;;;;;;5.53;71.44;100756.59;1733877;82;22115;-36
2020/12/20 04:10:01;;;;;;;25.37;14.00;;;;;;;5.57;71.42;100758.16;1734254;81;21031;-36
2020/12/20 04:12:31;;;;;;;24.30;14.45;;;;;;;5.65;71.29;100760.20;1733845;82;21166;-36
2020/12/20 04:15:03;;;;;;;23.12;14.03;;;;;;;5.69;71.24;100761.21;1746739;81;21336;-36
2020/12/20 04:17:31;;;;;;;22.80;13.80;;;;;;;5.73;71.17;100766.80;1742162;81;21173;-36
2020/12/20 04:20:00;;;;;;;20.88;13.80;;;;;;;5.73;71.05;100765.45;1743412;81;22266;-36
2020/12/20 04:22:46;;;;;;;23.10;14.07;;;;;;;5.74;71.02;100768.41;1734680;81;21420;-36
2020/12/20 04:25:33;;;;;;;23.38;14.10;;;;;;;5.71;71.00;100770.34;1753985;80;21143;-36
2020/12/20 04:28:15;;;;;;;21.05;13.22;;;;;;;5.68;71.05;100766.33;1859577;75;22818;-36
2020/12/20 04:30:44;;;;;;;22.55;13.85;;;;;;;5.71;70.89;100776.53;1826259;78;21185;-36
2020/12/20 04:33:14;;;;;;;;;;;;;;;5.78;70.73;100776.14;1845604;77;21709;-36
2020/12/20 04:35:43;;;;;;;24.10;14.55;;;;;;;5.79;70.63;100775.86;1842347;76;20127;-36
2020/12/20 04:38:12;;;;;;;24.65;14.50;;;;;;;5.69;70.84;100776.81;1857674;77;21153;-36
2020/12/20 04:40:42;;;;;;;24.02;13.72;;;;;;;5.72;70.80;100778.10;1847511;77;21026;-36
2020/12/20 04:43:12;;;;;;;23.25;14.15;;;;;;;5.75;70.79;100779.42;1859155;77;21514;-36
2020/12/20 04:45:43;;;;;;;25.40;14.25;;;;;;;5.77;70.67;100783.41;1853533;77;22271;-37
2020/12/20 04:48:13;;;;;;;26.68;14.80;;;;;;;5.72;70.61;100774.06;1850251;77;21034;-36
2020/12/20 04:50:43;;;;;;;;;;;;;;;5.66;70.70;100777.38;1854655;77;20972;-37
2020/12/20 04:53:11;;;;;;;27.52;14.93;;;;;;;5.68;70.70;100777.09;1859722;77;20213;-36
2020/12/20 04:55:47;;;;;;;24.05;14.03;;;;;;;5.71;70.71;100780.56;1852792;77;21142;-36
2020/12/20 04:58:20;;;;;;;24.05;14.98;;;;;;;5.76;70.64;100783.15;1832980;77;21201;-36
2020/12/20 05:00:48;;;;;;;22.60;14.28;;;;;;;5.78;70.56;100776.14;1803099;77;21149;-36
2020/12/20 05:03:17;;;;;;;24.90;14.30;;;;;;;5.82;70.42;100783.88;1853206;77;21118;-37
2020/12/20 05:05:48;;;;;;;24.57;14.38;;;;;;;5.78;70.44;100785.02;1839163;77;21152;-36
2020/12/20 05:08:16;;;;;;;24.57;13.65;;;;;;;5.75;70.44;100785.61;1846411;75;21126;-36
2020/12/20 05:10:45;;;;;;;22.93;13.72;;;;;;;5.76;70.52;100790.45;1832288;77;21190;-36
2020/12/20 05:13:13;;;;;;;23.62;14.03;;;;;;;5.75;70.45;100791.53;1843695;77;21138;-36
2020/12/20 05:15:42;;;;;;;27.05;14.10;;;;;;;5.79;70.34;100795.23;1856097;77;21153;-36
2020/12/20 05:18:21;;;;;;;25.23;15.13;;;;;;;5.83;70.24;100790.32;1814223;77;22823;-36
2020/12/20 05:20:55;;;;;;;26.75;16.02;;;;;;;5.79;70.27;100791.20;1802816;78;21023;-36
2020/12/20 05:23:31;;;;;;;26.52;15.58;;;;;;;5.76;70.31;100795.83;1778094;78;21195;-36
2020/12/20 05:26:31;;;;;;;30.37;16.07;;;;;;;5.78;70.45;100784.21;1836120;78;22592;-36
2020/12/20 05:29:14;;;;;;;25.68;15.05;;;;;;;5.73;70.49;100789.67;1805419;79;21585;-36
2020/12/20 05:31:44;;;;;;;28.65;15.98;;;;;;;5.71;70.54;100787.29;1806416;79;21350;-36
2020/12/20 05:34:27;;;;;;;24.55;15.13;;;;;;;5.71;70.61;100784.60;1832148;78;22645;-36
2020/12/20 05:36:56;;;;;;;24.75;14.75;;;;;;;5.74;70.50;100792.63;1804270;79;21031;-36
2020/12/20 05:39:37;;;;;;;24.47;15.15;;;;;;;5.84;70.33;100797.85;1853351;76;22815;-36
2020/12/20 05:42:25;;;;;;;29.05;14.93;;;;;;;5.82;70.31;100802.71;1801691;78;21023;-36
2020/12/20 05:45:08;;;;;;;26.05;16.62;;;;;;;5.81;70.38;100810.55;1758497;81;21139;-36
2020/12/20 05:47:39;;;;;;;27.25;15.53;;;;;;;5.77;70.39;100806.28;1766337;79;21063;-36
2020/12/20 05:50:13;;;;;;;30.40;17.17;;;;;;;5.74;70.49;100815.49;1777693;78;20960;-36
2020/12/20 05:52:42;;;;;;;29.57;17.12;;;;;;;5.70;70.53;100822.02;1762217;79;20968;-36
2020/12/20 05:55:13;;;;;;;28.60;17.07;;;;;;;5.65;70.54;100816.70;1812541;78;21134;-36
2020/12/20 05:57:41;;;;;;;28.17;16.00;;;;;;;5.62;70.70;100819.41;1791068;78;22268;-36
2020/12/20 06:00:10;;;;;;;29.00;15.05;;;;;;;5.71;70.62;100820.13;1798939;78;20992;-36
2020/12/20 06:02:43;;;;;;;26.42;15.23;;;;;;;5.73;70.61;100825.45;1806380;78;21383;-36
2020/12/20 06:05:12;;;;;;;27.60;16.57;;;;;;;5.75;70.52;100819.79;1797445;78;21138;-36
2020/12/20 06:07:40;;;;;;;27.45;16.57;;;;;;;5.71;70.51;100826.84;1794672;78;21561;-36
2020/12/20 06:10:08;;;;;;;28.70;16.42;;;;;;;5.69;70.56;100825.78;1809466;78;21411;-36
2020/12/20 06:12:41;;;;;;;27.85;16.62;;;;;;;5.65;70.49;100829.61;1790044;78;21176;-36
2020/12/20 06:15:09;;;;;;;28.12;16.70;;;;;;;5.62;70.63;100834.75;1807603;78;21107;-36
2020/12/20 06:17:44;;;;;;;25.90;14.80;;;;;;;5.65;70.51;100836.34;1787844;80;21067;-36
2020/12/20 06:20:17;;;;;;;19.10;12.15;;;;;;;5.63;70.43;100837.16;1809644;78;21149;-37
2020/12/20 06:22:55;;;;;;;21.15;13.48;;;;;;;5.55;70.24;100840.51;1761167;80;21161;-37
2020/12/20 06:25:24;;;;;;;20.02;12.35;;;;;;;5.49;70.44;100841.66;1823960;78;21121;-37
2020/12/20 06:27:53;;;;;;;22.80;13.65;;;;;;;5.42;70.41;100841.20;1807157;78;21135;-37
2020/12/20 06:30:22;;;;;;;21.85;12.45;;;;;;;5.31;70.45;100847.81;1796346;78;21557;-37
2020/12/20 06:32:54;;;;;;;13.97;8.73;;;;;;;5.21;70.75;100847.94;1789872;80;21613;-37
2020/12/20 06:35:30;;;;;;;15.75;10.82;;;;;;;5.14;70.82;100854.19;1821645;78;21162;-37
2020/12/20 06:37:58;;;;;;;17.98;11.03;;;;;;;5.10;70.99;100850.48;1789622;78;21193;-37
2020/12/20 06:40:37;;;;;;;19.23;11.40;;;;;;;5.22;70.93;100864.33;1779795;80;21147;-37
2020/12/20 06:43:05;;;;;;;19.10;12.23;;;;;;;5.30;70.85;100867.72;1802683;79;21668;-37
2020/12/20 06:45:46;;;;;;;19.67;11.57;;;;;;;5.36;70.74;100863.89;1801356;79;21451;-37
2020/12/20 06:48:14;;;;;;;19.37;12.03;;;;;;;5.41;70.58;100861.14;1793748;79;21209;-37
2020/12/20 06:50:49;;;;;;;21.80;12.73;;;;;;;5.45;70.40;100870.23;1802499;79;21110;-37
2020/12/20 06:53:18;;;;;;;20.97;13.08;;;;;;;5.43;70.29;100872.39;1770249;81;21166;-37
2020/12/20 06:55:47;;;;;;;18.23;11.90;;;;;;;5.40;70.32;100869.48;1770068;81;21165;-37
2020/12/20 06:58:17;;;;;;;15.90;10.68;;;;;;;5.45;70.16;100868.08;1769967;81;21146;-37
2020/12/20 07:00:50;;;;;;;18.52;12.47;;;;;;;5.52;70.05;100873.34;1761316;80;21372;-37
2020/12/20 07:03:31;;;;;;;20.92;12.30;;;;;;;5.55;70.00;100868.75;1765136;80;21706;-37
2020/12/20 07:06:11;;;;;;;18.05;12.50;;;;;;;5.55;69.87;100863.91;1770162;80;21377;-37
2020/12/20 07:08:41;;;;;;;21.40;12.82;;;;;;;5.49;69.96;100865.06;1769046;80;21054;-37
2020/12/20 07:11:21;;;;;;;20.23;11.93;;;;;;;5.44;69.96;100863.78;1758406;80;21209;-37
2020/12/20 07:16:41;;;;;;;19.35;11.65;;;;;;;5.13;70.63;100862.80;1868553;75;22849;-36
2020/12/20 07:19:12;;;;;;;17.60;11.25;;;;;;;5.06;70.84;100870.42;1833333;77;20964;-36
2020/12/20 07:21:45;;;;;;;18.90;11.38;;;;;;;5.12;70.76;100872.51;1829621;77;21439;-36
2020/12/20 07:24:18;;;;;;;17.95;11.50;;;;;;;5.06;70.87;100873.64;1832905;77;21027;-36
2020/12/20 07:26:47;;;;;;;20.02;12.35;;;;;;;4.95;70.95;100874.83;1832748;77;21593;-37
2020/12/20 07:29:15;;;;;;;22.50;13.00;;;;;;;4.83;71.19;100877.92;1835552;77;20995;-36
2020/12/20 07:31:45;;;;;;;19.87;12.05;;;;;;;4.78;71.47;100884.16;1832430;77;20991;-36
2020/12/20 07:34:13;;;;;;;18.40;11.28;;;;;;;4.73;71.70;100884.20;1824674;77;21193;-36
2020/12/20 07:36:42;;;;;;;16.93;10.93;;;;;;;4.70;71.82;100883.94;1842158;76;21015;-36
2020/12/20 07:39:11;;;;;;;18.17;11.53;;;;;;;4.64;71.97;100895.30;1836905;77;20985;-36
2020/12/20 07:41:39;;;;;;;18.23;11.55;;;;;;;4.65;72.18;100890.16;1832087;77;21082;-36
2020/12/20 07:44:11;;;;;;;21.20;12.53;;;;;;;4.67;72.31;100892.04;1855633;77;21341;-36
2020/12/20 07:46:39;;;;;;;18.02;11.20;;;;;;;4.72;72.26;100894.68;1859856;77;21344;-36
2020/12/20 07:49:13;;;;;;;19.85;12.23;;;;;;;4.83;72.19;100898.61;1851326;77;21132;-36
2020/12/20 07:51:42;;;;;;;18.37;11.20;;;;;;;4.95;71.87;100899.02;1838440;76;21589;-36
2020/12/20 07:54:14;;;;;;;18.85;10.82;;;;;;;4.98;71.54;100898.47;1853868;77;21118;-36
2020/12/20 07:56:47;;;;;;;19.45;12.40;;;;;;;4.94;71.38;100898.78;1853318;76;21177;-36
2020/12/20 07:59:18;;;;;;;18.23;11.75;;;;;;;4.94;71.49;100910.30;1849382;77;21369;-36
2020/12/20 08:01:48;;;;;;;19.17;12.40;;;;;;;4.98;71.49;100901.96;1835677;77;21154;-36
2020/12/20 08:04:22;;;;;;;20.50;12.03;;;;;;;5.04;71.23;100906.71;1781019;80;21605;-37
2020/12/20 08:06:53;;;;;;;19.92;12.70;;;;;;;5.07;71.12;100906.16;1764443;80;21147;-37
2020/12/20 08:09:26;;;;;;;19.23;11.78;;;;;;;5.08;71.15;100905.08;1768877;80;21202;-37
2020/12/20 08:11:55;;;;;;;16.65;10.90;;;;;;;5.14;71.07;100903.38;1800748;78;21356;-40
2020/12/20 08:14:23;;;;;;;16.57;10.88;;;;;;;5.24;70.71;100913.22;1788202;80;21241;-36
2020/12/20 08:16:53;;;;;;;16.55;10.50;;;;;;;5.27;70.41;100907.30;1782479;80;21401;-36
2020/12/20 08:19:31;;;;;;;15.83;10.35;;;;;;;5.21;70.08;100908.43;1817616;78;21015;-36
2020/12/20 08:22:13;;;;;;;20.25;11.97;;;;;;;5.12;70.04;100910.14;1782647;80;21150;-36
2020/12/20 08:24:43;;;;;;;15.93;10.35;;;;;;;5.07;70.19;100907.51;1810717;79;21174;-36
2020/12/20 08:27:19;;;;;;;17.12;10.38;;;;;;;5.05;70.27;100908.32;1804023;79;21003;-36
2020/12/20 08:29:50;;;;;;;19.10;11.78;;;;;;;4.99;70.46;100906.22;1765268;78;21036;-36
2020/12/20 08:32:24;;;;;;;17.35;11.68;;;;;;;4.96;70.59;100906.80;1752895;80;21759;-36
2020/12/20 08:35:15;;;;;;;17.30;11.00;;;;;;;5.05;70.74;100903.75;1842225;75;22404;-36
2020/12/20 08:37:46;;;;;;;16.27;10.80;;;;;;;5.00;70.77;100908.37;1795672;77;21493;-36
2020/12/20 08:40:16;;;;;;;18.42;10.72;;;;;;;4.95;70.79;100911.91;1795565;79;21475;-35
2020/12/20 08:42:46;;;;;;;16.65;10.60;;;;;;;4.90;70.66;100907.94;1745672;82;21600;-36
2020/12/20 08:45:21;;;;;;;18.45;10.75;;;;;;;4.86;70.79;100908.25;1746473;80;21020;-36
2020/12/20 08:47:50;;;;;;;18.82;11.97;;;;;;;4.87;71.09;100909.85;1764148;81;22134;-36
2020/12/20 08:50:25;;;;;;;20.20;11.48;;;;;;;4.91;71.13;100910.08;1742489;81;21028;-36
2020/12/20 08:53:09;;;;;;;19.60;12.70;;;;;;;5.02;70.81;100911.59;1746990;81;21942;-36
2020/12/20 08:55:37;;;;;;;19.17;12.60;;;;;;;4.95;70.85;100911.11;1747717;81;21025;-36
2020/12/20 08:58:07;;;;;;;19.35;12.68;;;;;;;4.95;71.04;100911.11;1751214;81;21311;-36
2020/12/20 09:00:36;;;;;;;20.27;12.20;;;;;;;4.99;71.18;100910.80;1740847;81;21746;-36
2020/12/20 09:03:06;;;;;;;18.77;11.90;;;;;;;5.01;70.96;100911.33;1728821;81;21182;-36
2020/12/20 09:05:37;;;;;;;16.82;10.08;;;;;;;4.96;70.96;100908.69;1728709;81;21201;-36
2020/12/20 09:08:05;;;;;;;22.10;13.90;;;;;;;4.94;71.02;100905.50;1726136;81;21204;-36
2020/12/20 09:10:37;;;;;;;19.23;13.62;;;;;;;5.01;70.62;100905.41;1746957;81;21570;-36
2020/12/20 09:13:09;;;;;;;21.23;14.03;;;;;;;4.92;70.36;100910.34;1755860;81;21150;-36
2020/12/20 09:15:42;;;;;;;22.52;14.73;;;;;;;4.71;70.47;100915.91;1752792;81;20997;-36
2020/12/20 09:18:18;;;;;;;22.67;15.10;;;;;;;4.62;70.87;100916.80;1753300;81;21367;-36
2020/12/20 09:20:48;;;;;;;19.65;13.53;;;;;;;4.60;71.40;100914.95;1730795;81;21154;-36
2020/12/20 09:23:20;;;;;;;20.70;14.38;;;;;;;4.65;71.41;100915.68;1755586;81;21723;-36
2020/12/20 09:25:49;;;;;;;20.32;14.00;;;;;;;4.72;71.41;100910.80;1729686;81;21589;-36
2020/12/20 09:28:22;;;;;;;20.23;12.25;;;;;;;4.78;71.21;100908.88;1726225;81;21178;-36
2020/12/20 09:30:55;;;;;;;15.32;11.57;;;;;;;4.79;70.85;100907.80;1725633;82;21193;-36
2020/12/20 09:33:33;;;;;;;19.23;12.33;;;;;;;4.73;70.91;100905.69;1736845;81;21664;-36
2020/12/20 09:36:12;;;;;;;16.12;11.15;;;;;;;4.71;70.82;100911.87;1711492;83;21166;-36
2020/12/20 09:38:49;;;;;;;18.40;12.15;;;;;;;4.70;70.85;100908.12;1726629;82;21582;-36
2020/12/20 09:41:26;;;;;;;21.80;13.20;;;;;;;4.73;70.56;100908.91;1717234;82;21151;-36
2020/12/20 09:43:55;;;;;;;20.45;12.85;;;;;;;4.74;70.50;100910.52;1711474;82;21191;-36
2020/12/20 09:46:35;;;;;;;16.75;11.63;;;;;;;4.66;70.79;100903.86;1710859;83;21217;-36
2020/12/20 09:49:04;;;;;;;22.30;14.45;;;;;;;4.60;70.93;100912.27;1717998;82;21127;-36
2020/12/20 09:51:33;;;;;;;23.15;15.95;;;;;;;4.52;71.01;100904.25;1724345;82;21162;-36
2020/12/20 09:54:01;;;;;;;24.95;15.70;;;;;;;4.51;71.25;100903.98;1711370;82;21126;-36
2020/12/20 09:56:29;;;;;;;27.20;17.98;;;;;;;4.54;71.35;100905.32;1715422;82;21208;-36
2020/12/20 09:58:58;;;;;;;22.93;15.08;;;;;;;4.61;71.30;100906.59;1718604;82;21440;-36
2020/12/20 10:01:26;;;;;;;23.62;15.40;;;;;;;4.66;71.22;100902.52;1711583;82;21135;-36
2020/12/20 10:03:54;;;;;;;26.55;16.55;;;;;;;4.65;71.32;100911.66;1711080;82;21173;-36
2020/12/20 10:06:23;;;;;;;25.27;15.93;;;;;;;4.64;71.43;100911.95;1710965;82;21178;-36
2020/12/20 10:08:51;;;;;;;23.42;15.40;;;;;;;4.62;71.39;100904.17;1710904;83;23678;-36
2020/12/20 10:11:21;;;;;;;23.83;15.65;;;;;;;4.64;71.55;100900.67;1711126;82;21131;-36
2020/12/20 10:13:53;;;;;;;22.52;14.38;;;;;;;4.64;71.34;100899.87;1711071;82;21107;-36
2020/12/20 10:16:21;;;;;;;19.17;12.30;;;;;;;4.64;71.22;100904.70;1721999;82;21594;-35
2020/12/20 10:18:49;;;;;;;18.57;12.68;;;;;;;4.66;70.85;100908.42;1717265;82;21582;-36
2020/12/20 10:21:17;;;;;;;19.52;12.30;;;;;;;4.62;70.88;100908.20;1710958;82;21403;-36
2020/12/20 10:23:50;;;;;;;18.37;12.40;;;;;;;4.60;71.02;100907.66;1711348;82;21915;-36
2020/12/20 10:26:19;;;;;;;21.35;12.55;;;;;;;4.62;70.89;100906.85;1711037;82;21032;-36
2020/12/20 10:28:47;;;;;;;19.82;13.40;;;;;;;4.58;70.94;100903.13;1715147;82;21634;-36
2020/12/20 10:31:19;;;;;;;22.70;13.72;;;;;;;4.57;71.00;100905.55;1698993;83;21202;-36
2020/12/20 10:33:47;;;;;;;19.02;12.90;;;;;;;4.59;71.19;100910.11;1791105;78;21344;-36
2020/12/20 10:36:16;;;;;;;18.30;12.70;;;;;;;4.66;71.21;100901.71;1781505;79;21059;-36
2020/12/20 10:38:46;;;;;;;17.20;11.53;;;;;;;4.71;71.18;100899.78;1787543;79;21582;-36
2020/12/20 10:41:16;;;;;;;19.95;14.23;;;;;;;4.74;71.00;100893.84;1813461;79;21166;-36
2020/12/20 10:43:47;;;;;;;24.07;15.70;;;;;;;4.78;71.16;100896.23;1781539;80;21114;-35
2020/12/20 10:46:15;;;;;;;23.85;15.30;;;;;;;4.83;71.10;100898.61;1789291;79;21300;-36
2020/12/20 10:48:45;;;;;;;21.60;14.63;;;;;;;4.85;70.88;100903.14;1781856;79;21446;-36
2020/12/20 10:51:15;;;;;;;21.82;14.38;;;;;;;4.88;70.71;100895.88;1794871;79;21095;-36
2020/12/20 10:53:43;;;;;;;20.23;13.43;;;;;;;4.91;70.58;100898.79;1813631;79;21153;-36
2020/12/20 10:56:12;;;;;;;21.65;14.03;;;;;;;4.87;70.63;100894.27;1813573;79;21122;-36
2020/12/20 10:58:42;;;;;;;23.02;14.65;;;;;;;4.75;70.55;100896.78;1795908;79;22093;-36
2020/12/20 11:01:16;;;;;;;14.75;10.48;;;;;;;4.67;70.90;100893.92;1786030;79;21016;-36
2020/12/20 11:03:48;;;;;;;22.42;14.20;;;;;;;4.64;71.08;100900.67;1759383;79;21150;-36
2020/12/20 11:06:18;;;;;;;20.48;13.40;;;;;;;4.65;71.13;100900.10;1813434;78;21126;-35
2020/12/20 11:08:47;;;;;;;19.98;13.22;;;;;;;4.71;70.80;100898.44;1807295;79;21122;-36
2020/12/20 11:11:16;;;;;;;22.22;14.20;;;;;;;4.72;70.65;100896.56;1797329;79;21367;-36
2020/12/20 11:13:46;;;;;;;23.27;15.05;;;;;;;4.65;70.71;100896.88;1813590;78;21146;-36
2020/12/20 11:16:18;;;;;;;22.22;14.05;;;;;;;4.61;71.06;100893.70;1813619;79;20992;-36
2020/12/20 11:18:47;;;;;;;19.82;13.50;;;;;;;4.59;71.40;100904.74;1802322;79;21150;-36
2020/12/20 11:21:18;;;;;;;19.57;13.70;;;;;;;4.51;71.05;100906.67;1797339;79;21154;-36
2020/12/20 11:23:48;;;;;;;20.70;14.23;;;;;;;4.38;71.04;100911.34;1813557;79;21154;-35
2020/12/20 11:26:23;;;;;;;16.65;11.22;;;;;;;4.27;71.37;100904.44;1813580;79;21138;-35
2020/12/20 11:28:53;;;;;;;19.40;12.95;;;;;;;4.29;71.52;100914.38;1791424;78;21114;-36
2020/12/20 11:31:24;;;;;;;21.33;14.68;;;;;;;4.28;71.89;100912.23;1782067;79;21157;-36
2020/12/20 11:33:52;;;;;;;22.42;14.60;;;;;;;4.30;71.92;100918.67;1781117;79;21169;-36
2020/12/20 11:36:24;;;;;;;19.77;13.55;;;;;;;4.33;71.97;100922.13;1784945;79;21243;-36
2020/12/20 11:38:52;;;;;;;22.17;14.58;;;;;;;4.35;72.01;100916.75;1772444;81;21202;-36